Souda — SVBH5 — position and weather

sailwx.info

Track history (hours):
 
Tides and Currents Weather Stations Pressure Air Temp Water Temp Dewpoint Dewpoint Depression Visibility Wind Speed Wind Dir Waves Ship Positions

Souda

Last reported at 2016-Jun-26 02:32 UTC. Time now 2016-Jun-27 11:27 UTC.
Position N 38°15' E 022°16'.

Length 88 m; draft 5.3 m.

Type: Tanker. MMSI: 241109000.

Date/timePositionNaut miles runAvg speedWind from/ knotsBaromVisibWave heightAir tempDewpointWater temp
2016-Jun-26 02:32N 38°15' E 022°16'14 9.5
2016-Jun-26 01:05N 38°10' E 022°32'5 8.5
2016-Jun-26 00:33N 38°07' E 022°37'22 7.5
2016-Jun-25 21:32N 37°55' E 023°01'3 2.8
2016-Jun-25 20:32N 37°54' E 023°05'0 0.0
2016-Jun-25 19:32N 37°54' E 023°05'1 0.1
2016-Jun-25 12:26N 37°55' E 023°05'0 0.2
2016-Jun-25 11:21N 37°55' E 023°05'1 0.8
2016-Jun-25 10:33N 37°54' E 023°05'0 0.0
2016-Jun-25 09:21N 37°54' E 023°04'0 0.0
2016-Jun-25 08:30N 37°54' E 023°04'0 0.0
2016-Jun-25 07:30N 37°54' E 023°05'0 0.0
2016-Jun-25 06:33N 37°54' E 023°05'0 0.0
2016-Jun-25 05:33N 37°54' E 023°05'0 0.0
2016-Jun-25 04:33N 37°54' E 023°04'0 0.0
2016-Jun-25 03:33N 37°54' E 023°05'0 0.0
2016-Jun-25 02:33N 37°54' E 023°05'0 0.0
2016-Jun-25 01:33N 37°54' E 023°05'0 0.0
2016-Jun-25 00:33N 37°54' E 023°05'0 0.0
2016-Jun-24 23:33N 37°54' E 023°04'0 0.0
2016-Jun-24 22:33N 37°54' E 023°04'0 0.0
2016-Jun-24 21:33N 37°54' E 023°05'0 0.0
2016-Jun-24 20:33N 37°54' E 023°05'0 0.0
2016-Jun-24 19:33N 37°54' E 023°04'0 0.0
2016-Jun-24 18:33N 37°54' E 023°05'0 0.0
2016-Jun-24 17:33N 37°54' E 023°04'0 0.0
2016-Jun-24 16:33N 37°54' E 023°04'0 0.0
2016-Jun-24 15:32N 37°54' E 023°04'0 0.0
2016-Jun-24 14:32N 37°54' E 023°04'0 0.0
2016-Jun-24 13:33N 37°54' E 023°04'3 2.6
2016-Jun-24 12:33N 37°54' E 023°08'10 9.8
2016-Jun-24 11:33N 37°52' E 023°20'10 9.7
2016-Jun-24 10:33N 37°50' E 023°32'7 7.2
2016-Jun-24 09:31N 37°57' E 023°35'0 0.0
2016-Jun-24 08:31N 37°57' E 023°35'0 0.0
2016-Jun-24 07:28N 37°57' E 023°35'0 0.0
2016-Jun-24 04:31N 37°57' E 023°35'0 0.0
2016-Jun-24 03:28N 37°57' E 023°35'0 0.0
2016-Jun-24 02:25N 37°57' E 023°35'0 0.0
2016-Jun-24 01:31N 37°57' E 023°35'0 0.0
2016-Jun-24 00:31N 37°57' E 023°35'0 0.0
2016-Jun-23 23:28N 37°57' E 023°35'0 0.0
2016-Jun-23 22:31N 37°57' E 023°35'0 0.0
2016-Jun-23 21:31N 37°57' E 023°35'0 0.0
2016-Jun-23 20:28N 37°57' E 023°35'0 0.0
2016-Jun-23 19:28N 37°57' E 023°35'0 0.0
2016-Jun-23 18:28N 37°57' E 023°35'0 0.0
2016-Jun-23 17:31N 37°57' E 023°35'0 0.0
2016-Jun-23 16:31N 37°57' E 023°35'0 0.0
2016-Jun-23 15:31N 37°57' E 023°35'0 0.0
2016-Jun-23 14:28N 37°57' E 023°35'0 0.0
2016-Jun-23 13:28N 37°57' E 023°35'0 0.0
2016-Jun-23 12:31N 37°57' E 023°35'0 0.0
2016-Jun-23 11:31N 37°57' E 023°35'0 0.0
2016-Jun-23 10:31N 37°57' E 023°35'0 0.0
2016-Jun-23 09:28N 37°57' E 023°35'0 0.0
2016-Jun-23 08:31N 37°57' E 023°35'0 0.0
2016-Jun-23 07:31N 37°57' E 023°35'2 1.2
2016-Jun-23 05:33N 37°55' E 023°35'1 0.5
2016-Jun-23 04:33N 37°55' E 023°35'1 1.0
2016-Jun-23 03:33N 37°54' E 023°34'0 0.0
2016-Jun-23 02:33N 37°54' E 023°34'0 0.0
2016-Jun-23 01:33N 37°54' E 023°34'0 0.0
2016-Jun-23 00:33N 37°55' E 023°34'0 0.0
2016-Jun-22 23:33N 37°54' E 023°34'0 0.0
2016-Jun-22 22:33N 37°54' E 023°34'0 0.0
2016-Jun-22 21:33N 37°54' E 023°34'0 0.0
2016-Jun-22 20:33N 37°54' E 023°34'0 0.0
2016-Jun-22 19:33N 37°54' E 023°34'1 1.1
2016-Jun-22 18:33N 37°53' E 023°34'7 6.9
2016-Jun-22 17:33N 37°50' E 023°27'9 8.7
2016-Jun-22 16:33N 37°52' E 023°16'9 8.8
2016-Jun-22 15:33N 37°55' E 023°05'0 0.0
2016-Jun-21 17:32N 37°55' E 023°05'1 0.7
2016-Jun-21 16:28N 37°54' E 023°05'0 0.0
2016-Jun-21 15:31N 37°54' E 023°05'0 0.1
2016-Jun-21 14:31N 37°54' E 023°05'0 0.0
2016-Jun-21 09:31N 37°54' E 023°05'0 0.1
2016-Jun-21 08:07N 37°54' E 023°05'0 0.0
2016-Jun-21 04:19N 37°54' E 023°05'0 0.0
2016-Jun-21 03:28N 37°54' E 023°05'0 0.0
2016-Jun-21 02:31N 37°54' E 023°05'0 0.0
2016-Jun-21 01:31N 37°54' E 023°05'0 0.0
2016-Jun-21 00:31N 37°54' E 023°05'0 0.1
2016-Jun-20 23:31N 37°54' E 023°05'0 0.0
2016-Jun-20 22:28N 37°54' E 023°05'0 0.0
2016-Jun-20 21:31N 37°54' E 023°05'0 0.0
2016-Jun-20 20:28N 37°54' E 023°05'0 0.1
2016-Jun-20 19:31N 37°54' E 023°05'0 0.0
2016-Jun-20 18:31N 37°54' E 023°05'0 0.0
2016-Jun-20 17:31N 37°54' E 023°05'0 0.0
2016-Jun-20 16:19N 37°54' E 023°05'0 0.0
2016-Jun-20 15:31N 37°54' E 023°05'0 0.0
2016-Jun-20 14:31N 37°54' E 023°05'0 0.0
2016-Jun-20 13:31N 37°54' E 023°05'0 0.0
2016-Jun-20 12:31N 37°54' E 023°05'0 0.0
2016-Jun-20 11:28N 37°54' E 023°05'0 0.0
2016-Jun-20 10:31N 37°54' E 023°05'0 0.0
2016-Jun-20 09:31N 37°54' E 023°05'0 0.0
2016-Jun-20 08:31N 37°54' E 023°05'0 0.1
2016-Jun-20 07:28N 37°54' E 023°05'0 0.1
2016-Jun-20 06:31N 37°54' E 023°05'0 0.0
2016-Jun-20 05:31N 37°54' E 023°05'0 0.0
2016-Jun-20 04:28N 37°54' E 023°05'0 0.0
2016-Jun-20 03:31N 37°54' E 023°05'0 0.0
2016-Jun-20 02:31N 37°54' E 023°05'0 0.0
2016-Jun-20 01:28N 37°54' E 023°05'0 0.0
2016-Jun-20 00:31N 37°54' E 023°05'0 0.0
2016-Jun-19 23:31N 37°54' E 023°05'0 0.0
2016-Jun-19 22:31N 37°54' E 023°05'0 0.0
2016-Jun-19 21:31N 37°54' E 023°05'0 0.0
2016-Jun-19 20:07N 37°54' E 023°05'0 0.1
2016-Jun-19 19:31N 37°54' E 023°05'1 0.0
2016-Jun-18 17:05N 37°55' E 023°05'1 1.0
2016-Jun-18 16:33N 37°55' E 023°06'1 0.7
2016-Jun-18 15:31N 37°55' E 023°07'0 0.0
2016-Jun-18 14:31N 37°55' E 023°07'0 0.0
2016-Jun-18 13:22N 37°55' E 023°07'0 0.0
2016-Jun-18 12:28N 37°55' E 023°07'2 2.2
2016-Jun-18 11:33N 37°54' E 023°09'9 8.8
2016-Jun-18 10:33N 37°52' E 023°20'9 9.0
2016-Jun-18 09:33N 37°50' E 023°31'8 7.9
2016-Jun-18 08:33N 37°57' E 023°35'5 4.7
2016-Jun-18 07:28N 38°01' E 023°32'0 0.0
2016-Jun-18 06:31N 38°01' E 023°32'0 0.0
2016-Jun-18 05:31N 38°01' E 023°32'0 0.0
2016-Jun-18 04:28N 38°01' E 023°32'0 0.0
2016-Jun-18 03:31N 38°01' E 023°32'2 1.7
2016-Jun-18 02:33N 38°01' E 023°34'2 1.6
2016-Jun-18 01:32N 38°02' E 023°36'0 0.0
2016-Jun-18 00:32N 38°02' E 023°36'0 0.0
2016-Jun-17 23:29N 38°02' E 023°36'0 0.0
2016-Jun-17 22:32N 38°02' E 023°36'0 0.0
2016-Jun-17 21:32N 38°02' E 023°36'0 0.0
2016-Jun-17 20:32N 38°02' E 023°36'0 0.0
2016-Jun-17 19:32N 38°02' E 023°36'0 0.0
2016-Jun-17 18:29N 38°02' E 023°36'0 0.0
2016-Jun-17 17:32N 38°02' E 023°36'0 0.0
2016-Jun-17 16:23N 38°02' E 023°36'0 0.0
2016-Jun-17 13:29N 38°02' E 023°36'0 0.0
2016-Jun-17 10:29N 38°02' E 023°36'0 0.0
2016-Jun-17 08:32N 38°02' E 023°36'0 0.0
2016-Jun-17 07:26N 38°02' E 023°36'0 0.0
2016-Jun-17 06:32N 38°02' E 023°36'0 0.1
2016-Jun-17 05:34N 38°02' E 023°36'4 4.1
2016-Jun-17 04:32N 37°57' E 023°35'0 0.0
2016-Jun-17 03:32N 37°57' E 023°35'0 0.0
2016-Jun-17 02:32N 37°57' E 023°35'0 0.0
2016-Jun-17 01:32N 37°57' E 023°35'0 0.0
2016-Jun-17 00:32N 37°57' E 023°35'0 0.0
2016-Jun-16 23:32N 37°57' E 023°35'0 0.0
2016-Jun-16 22:32N 37°57' E 023°35'0 0.0
2016-Jun-16 21:32N 37°57' E 023°35'0 0.0
2016-Jun-16 20:29N 37°57' E 023°35'0 0.0
2016-Jun-16 19:32N 37°57' E 023°35'0 0.0
2016-Jun-16 18:29N 37°57' E 023°35'0 0.0
2016-Jun-16 17:32N 37°57' E 023°35'0 0.0
2016-Jun-16 16:32N 37°57' E 023°35'0 0.0
2016-Jun-16 15:29N 37°57' E 023°35'0 0.0
2016-Jun-16 14:32N 37°57' E 023°35'0 0.0
2016-Jun-16 13:29N 37°57' E 023°35'0 0.0
2016-Jun-16 12:32N 37°57' E 023°35'0 0.0
2016-Jun-16 11:32N 37°57' E 023°35'0 0.0
2016-Jun-16 10:32N 37°57' E 023°35'0 0.0
2016-Jun-16 09:32N 37°57' E 023°35'0 0.0
2016-Jun-16 08:29N 37°57' E 023°35'0 0.0
2016-Jun-16 07:20N 37°57' E 023°35'0 0.0
2016-Jun-16 06:29N 37°57' E 023°35'0 0.0
2016-Jun-16 05:32N 37°57' E 023°35'0 0.0
2016-Jun-16 04:32N 37°57' E 023°35'0 0.0
2016-Jun-16 03:32N 37°57' E 023°35'0 0.0
2016-Jun-16 02:32N 37°57' E 023°35'  
Track history (hours):
 
Tides and Currents Weather Stations Pressure Air Temp Water Temp Dewpoint Dewpoint Depression Visibility Wind Speed Wind Dir Waves Ship Positions

Souda

Last reported at 2016-Jun-26 02:32 UTC. Time now 2016-Jun-27 11:27 UTC.
Position N 38°15' E 022°16'.

Length 88 m; draft 5.3 m.

Type: Tanker. MMSI: 241109000.

Date/timePositionNaut miles runAvg speedWind from/ knotsBaromVisibWave heightAir tempDewpointWater temp
2016-Jun-26 02:32N 38°15' E 022°16'14 9.5
2016-Jun-26 01:05N 38°10' E 022°32'5 8.5
2016-Jun-26 00:33N 38°07' E 022°37'22 7.5
2016-Jun-25 21:32N 37°55' E 023°01'3 2.8
2016-Jun-25 20:32N 37°54' E 023°05'0 0.0
2016-Jun-25 19:32N 37°54' E 023°05'1 0.1
2016-Jun-25 12:26N 37°55' E 023°05'0 0.2
2016-Jun-25 11:21N 37°55' E 023°05'1 0.8
2016-Jun-25 10:33N 37°54' E 023°05'0 0.0
2016-Jun-25 09:21N 37°54' E 023°04'0 0.0
2016-Jun-25 08:30N 37°54' E 023°04'0 0.0
2016-Jun-25 07:30N 37°54' E 023°05'0 0.0
2016-Jun-25 06:33N 37°54' E 023°05'0 0.0
2016-Jun-25 05:33N 37°54' E 023°05'0 0.0
2016-Jun-25 04:33N 37°54' E 023°04'0 0.0
2016-Jun-25 03:33N 37°54' E 023°05'0 0.0
2016-Jun-25 02:33N 37°54' E 023°05'0 0.0
2016-Jun-25 01:33N 37°54' E 023°05'0 0.0
2016-Jun-25 00:33N 37°54' E 023°05'0 0.0
2016-Jun-24 23:33N 37°54' E 023°04'0 0.0
2016-Jun-24 22:33N 37°54' E 023°04'0 0.0
2016-Jun-24 21:33N 37°54' E 023°05'0 0.0
2016-Jun-24 20:33N 37°54' E 023°05'0 0.0
2016-Jun-24 19:33N 37°54' E 023°04'0 0.0
2016-Jun-24 18:33N 37°54' E 023°05'0 0.0
2016-Jun-24 17:33N 37°54' E 023°04'0 0.0
2016-Jun-24 16:33N 37°54' E 023°04'0 0.0
2016-Jun-24 15:32N 37°54' E 023°04'0 0.0
2016-Jun-24 14:32N 37°54' E 023°04'0 0.0
2016-Jun-24 13:33N 37°54' E 023°04'3 2.6
2016-Jun-24 12:33N 37°54' E 023°08'10 9.8
2016-Jun-24 11:33N 37°52' E 023°20'10 9.7
2016-Jun-24 10:33N 37°50' E 023°32'7 7.2
2016-Jun-24 09:31N 37°57' E 023°35'0 0.0
2016-Jun-24 08:31N 37°57' E 023°35'0 0.0
2016-Jun-24 07:28N 37°57' E 023°35'0 0.0
2016-Jun-24 04:31N 37°57' E 023°35'0 0.0
2016-Jun-24 03:28N 37°57' E 023°35'0 0.0
2016-Jun-24 02:25N 37°57' E 023°35'0 0.0
2016-Jun-24 01:31N 37°57' E 023°35'0 0.0
2016-Jun-24 00:31N 37°57' E 023°35'0 0.0
2016-Jun-23 23:28N 37°57' E 023°35'0 0.0
2016-Jun-23 22:31N 37°57' E 023°35'0 0.0
2016-Jun-23 21:31N 37°57' E 023°35'0 0.0
2016-Jun-23 20:28N 37°57' E 023°35'0 0.0
2016-Jun-23 19:28N 37°57' E 023°35'0 0.0
2016-Jun-23 18:28N 37°57' E 023°35'0 0.0
2016-Jun-23 17:31N 37°57' E 023°35'0 0.0
2016-Jun-23 16:31N 37°57' E 023°35'0 0.0
2016-Jun-23 15:31N 37°57' E 023°35'0 0.0
2016-Jun-23 14:28N 37°57' E 023°35'0 0.0
2016-Jun-23 13:28N 37°57' E 023°35'0 0.0
2016-Jun-23 12:31N 37°57' E 023°35'0 0.0
2016-Jun-23 11:31N 37°57' E 023°35'0 0.0
2016-Jun-23 10:31N 37°57' E 023°35'0 0.0
2016-Jun-23 09:28N 37°57' E 023°35'0 0.0
2016-Jun-23 08:31N 37°57' E 023°35'0 0.0
2016-Jun-23 07:31N 37°57' E 023°35'2 1.2
2016-Jun-23 05:33N 37°55' E 023°35'1 0.5
2016-Jun-23 04:33N 37°55' E 023°35'1 1.0
2016-Jun-23 03:33N 37°54' E 023°34'0 0.0
2016-Jun-23 02:33N 37°54' E 023°34'0 0.0
2016-Jun-23 01:33N 37°54' E 023°34'0 0.0
2016-Jun-23 00:33N 37°55' E 023°34'0 0.0
2016-Jun-22 23:33N 37°54' E 023°34'0 0.0
2016-Jun-22 22:33N 37°54' E 023°34'0 0.0
2016-Jun-22 21:33N 37°54' E 023°34'0 0.0
2016-Jun-22 20:33N 37°54' E 023°34'0 0.0
2016-Jun-22 19:33N 37°54' E 023°34'1 1.1
2016-Jun-22 18:33N 37°53' E 023°34'7 6.9
2016-Jun-22 17:33N 37°50' E 023°27'9 8.7
2016-Jun-22 16:33N 37°52' E 023°16'9 8.8
2016-Jun-22 15:33N 37°55' E 023°05'0 0.0
2016-Jun-21 17:32N 37°55' E 023°05'1 0.7
2016-Jun-21 16:28N 37°54' E 023°05'0 0.0
2016-Jun-21 15:31N 37°54' E 023°05'0 0.1
2016-Jun-21 14:31N 37°54' E 023°05'0 0.0
2016-Jun-21 09:31N 37°54' E 023°05'0 0.1
2016-Jun-21 08:07N 37°54' E 023°05'0 0.0
2016-Jun-21 04:19N 37°54' E 023°05'0 0.0
2016-Jun-21 03:28N 37°54' E 023°05'0 0.0
2016-Jun-21 02:31N 37°54' E 023°05'0 0.0
2016-Jun-21 01:31N 37°54' E 023°05'0 0.0
2016-Jun-21 00:31N 37°54' E 023°05'0 0.1
2016-Jun-20 23:31N 37°54' E 023°05'0 0.0
2016-Jun-20 22:28N 37°54' E 023°05'0 0.0
2016-Jun-20 21:31N 37°54' E 023°05'0 0.0
2016-Jun-20 20:28N 37°54' E 023°05'0 0.1
2016-Jun-20 19:31N 37°54' E 023°05'0 0.0
2016-Jun-20 18:31N 37°54' E 023°05'0 0.0
2016-Jun-20 17:31N 37°54' E 023°05'0 0.0
2016-Jun-20 16:19N 37°54' E 023°05'0 0.0
2016-Jun-20 15:31N 37°54' E 023°05'0 0.0
2016-Jun-20 14:31N 37°54' E 023°05'0 0.0
2016-Jun-20 13:31N 37°54' E 023°05'0 0.0
2016-Jun-20 12:31N 37°54' E 023°05'0 0.0
2016-Jun-20 11:28N 37°54' E 023°05'0 0.0
2016-Jun-20 10:31N 37°54' E 023°05'0 0.0
2016-Jun-20 09:31N 37°54' E 023°05'0 0.0
2016-Jun-20 08:31N 37°54' E 023°05'0 0.1
2016-Jun-20 07:28N 37°54' E 023°05'0 0.1
2016-Jun-20 06:31N 37°54' E 023°05'0 0.0
2016-Jun-20 05:31N 37°54' E 023°05'0 0.0
2016-Jun-20 04:28N 37°54' E 023°05'0 0.0
2016-Jun-20 03:31N 37°54' E 023°05'0 0.0
2016-Jun-20 02:31N 37°54' E 023°05'0 0.0
2016-Jun-20 01:28N 37°54' E 023°05'0 0.0
2016-Jun-20 00:31N 37°54' E 023°05'0 0.0
2016-Jun-19 23:31N 37°54' E 023°05'0 0.0
2016-Jun-19 22:31N 37°54' E 023°05'0 0.0
2016-Jun-19 21:31N 37°54' E 023°05'0 0.0
2016-Jun-19 20:07N 37°54' E 023°05'0 0.1
2016-Jun-19 19:31N 37°54' E 023°05'1 0.0
2016-Jun-18 17:05N 37°55' E 023°05'1 1.0
2016-Jun-18 16:33N 37°55' E 023°06'1 0.7
2016-Jun-18 15:31N 37°55' E 023°07'0 0.0
2016-Jun-18 14:31N 37°55' E 023°07'0 0.0
2016-Jun-18 13:22N 37°55' E 023°07'0 0.0
2016-Jun-18 12:28N 37°55' E 023°07'2 2.2
2016-Jun-18 11:33N 37°54' E 023°09'9 8.8
2016-Jun-18 10:33N 37°52' E 023°20'9 9.0
2016-Jun-18 09:33N 37°50' E 023°31'8 7.9
2016-Jun-18 08:33N 37°57' E 023°35'5 4.7
2016-Jun-18 07:28N 38°01' E 023°32'0 0.0
2016-Jun-18 06:31N 38°01' E 023°32'0 0.0
2016-Jun-18 05:31N 38°01' E 023°32'0 0.0
2016-Jun-18 04:28N 38°01' E 023°32'0 0.0
2016-Jun-18 03:31N 38°01' E 023°32'2 1.7
2016-Jun-18 02:33N 38°01' E 023°34'2 1.6
2016-Jun-18 01:32N 38°02' E 023°36'0 0.0
2016-Jun-18 00:32N 38°02' E 023°36'0 0.0
2016-Jun-17 23:29N 38°02' E 023°36'0 0.0
2016-Jun-17 22:32N 38°02' E 023°36'0 0.0
2016-Jun-17 21:32N 38°02' E 023°36'0 0.0
2016-Jun-17 20:32N 38°02' E 023°36'0 0.0
2016-Jun-17 19:32N 38°02' E 023°36'0 0.0
2016-Jun-17 18:29N 38°02' E 023°36'0 0.0
2016-Jun-17 17:32N 38°02' E 023°36'0 0.0
2016-Jun-17 16:23N 38°02' E 023°36'0 0.0
2016-Jun-17 13:29N 38°02' E 023°36'0 0.0
2016-Jun-17 10:29N 38°02' E 023°36'0 0.0
2016-Jun-17 08:32N 38°02' E 023°36'0 0.0
2016-Jun-17 07:26N 38°02' E 023°36'0 0.0
2016-Jun-17 06:32N 38°02' E 023°36'0 0.1
2016-Jun-17 05:34N 38°02' E 023°36'4 4.1
2016-Jun-17 04:32N 37°57' E 023°35'0 0.0
2016-Jun-17 03:32N 37°57' E 023°35'0 0.0
2016-Jun-17 02:32N 37°57' E 023°35'0 0.0
2016-Jun-17 01:32N 37°57' E 023°35'0 0.0
2016-Jun-17 00:32N 37°57' E 023°35'0 0.0
2016-Jun-16 23:32N 37°57' E 023°35'0 0.0
2016-Jun-16 22:32N 37°57' E 023°35'0 0.0
2016-Jun-16 21:32N 37°57' E 023°35'0 0.0
2016-Jun-16 20:29N 37°57' E 023°35'0 0.0
2016-Jun-16 19:32N 37°57' E 023°35'0 0.0
2016-Jun-16 18:29N 37°57' E 023°35'0 0.0
2016-Jun-16 17:32N 37°57' E 023°35'0 0.0
2016-Jun-16 16:32N 37°57' E 023°35'0 0.0
2016-Jun-16 15:29N 37°57' E 023°35'0 0.0
2016-Jun-16 14:32N 37°57' E 023°35'0 0.0
2016-Jun-16 13:29N 37°57' E 023°35'0 0.0
2016-Jun-16 12:32N 37°57' E 023°35'0 0.0
2016-Jun-16 11:32N 37°57' E 023°35'0 0.0
2016-Jun-16 10:32N 37°57' E 023°35'0 0.0
2016-Jun-16 09:32N 37°57' E 023°35'0 0.0
2016-Jun-16 08:29N 37°57' E 023°35'0 0.0
2016-Jun-16 07:20N 37°57' E 023°35'0 0.0
2016-Jun-16 06:29N 37°57' E 023°35'0 0.0
2016-Jun-16 05:32N 37°57' E 023°35'0 0.0
2016-Jun-16 04:32N 37°57' E 023°35'0 0.0
2016-Jun-16 03:32N 37°57' E 023°35'0 0.0
2016-Jun-16 02:32N 37°57' E 023°35'  

Dump ship's entire track history